Inukjuak Airport
CYPH : now visible

Airfield :











YOU CAN JOIN US ON...

 
LOGIN :

Register | Disclaimer

   EN    FR    IT 

 









Legend :    VFR   Marginal VFR   IFR   Intensive IFR   Very Intensive IFR
Visi :
Ceiling :
>= 8 km
>= 3000ft
5 to 8 km
1000 to 3000 ft
1500m to 5 km
500 to 1000 ft
800 to 1500m
200 to 500 ft
< 800m
< 200 ft
Symbols :   Thunderstorms  Fog  Heavy snow  Heavy precipitations  Wind > 20 kt






- Airport Elevation : 83 ft
- IATA code : YPH


CYPH - Inukjuak

CURRENT METAR :
  • 231533Z AUTO 22016KT 9SM BKN025 M26/M30 A2932 RMK SLP933

EXPIRED METARs :
  • 231500Z AUTO 22015KT 7SM FEW019 M26/M30 A2931 RMK SLP933
  • 231451Z AUTO 22015KT 6SM HZ FEW019 M26/M31 A2931 RMK SLP933
  • 231443Z AUTO 22015KT 5SM HZ FEW240 M26/M30 A2931 RMK SLP933
  • 231420Z AUTO 22015KT 9SM SCT015 M26/M30 A2932 RMK SLP934
  • 231413Z AUTO 22015G20KT 8SM BKN015 M26/M30 A2932 RMK SLP934
  • 231405Z AUTO 22017KT 2 1/4SM -SN BKN015 M26/M30 A2932 RMK SLP934
  • 231343Z AUTO 22018G23KT 1SM -SN FEW009 BKN015 M26/M30 A2932 RMK SLP934
  • 231335Z AUTO 22020KT 3/4SM -SN FEW006 BKN015 OVC021 M26/M30 A2932 RMK SLP935
  • 231325Z AUTO 22018KT 2SM -SN FEW010 BKN018 M26/M30 A2932 RMK SLP935
  • 231300Z AUTO 22017KT 2SM -SN BKN011 BKN021 BKN026 M26/M30 A2933 RMK SLP937
  • 231255Z AUTO 22017KT 2 1/2SM -SN BKN011 BKN019 BKN026 M26/M30 A2933 RMK SLP937
  • 231246Z AUTO 21017KT 5SM -SN FEW016 BKN026 BKN240 M26/M30 A2933 RMK SLP937

TAF TAF CYPH
Valid from the 23 at 12:00 until the 24 at 00:00 UTC


231140Z 2312/2324 23015G25KT P6SM SCT020
TEMPO 2312/2316 1 1/2SM -SN BLSN BKN020
FM231600 22012G22KT P6SM BKN025
TEMPO 2316/2324 2 1/2SM -SN BLSN BKN020 RMK FCST BASED ON AUTO OBS. NXT FCST BY 231800Z
CZUL FIR / North America



MET'MAP, your aeronautical weather chart ! - Copyright ORBIFLY December 2007 - Disclaimer

ORBIFLY MET'MAP TEAM :

Programming & Development : Alexandra Zaïnal
Concept & original design : Baudouin d'Aumeries
Assistance for programming : Marc-Olivier Méhu
Technical & hardware support : Manuel Goepfert

Contact : metmap@orbifly.com




SOURCES & CREDITS :

   NOAA       Earth
Advisory